Topaz Lake, Nevada
Current Conditions -  °F | °C
As of 7:53 AM on Wednesday 28 Jan 2015 (Local Time) from KTVL Reporting Station
Clear Clear  
Wind Chill: 26°   Ceiling: Unl
Heat Index: 26°   Visibility: 10mi
Dew Point: 20°   Wind: 3mph
Humidity: 78%   Direction: 180°S
Pressure: 30.34"   Gusts: NA
Location:  38.9417°N, 119.681°W
Report Text: KTVL 281553Z AUTO 18003KT 10SM CLR M03/M07 A3034 RMK AO2 SLP282 I1000 T10331067
Loading
Personal Weather Stations






























Interactive Weather Map New forecast layout! Learn more

10-Day Weather Forecast

Advertisements
Track Severe Weather on mobile